sensor_id;sensor_type;location;lat;lon;timestamp;temperature;humidity
45619;DHT22;31343;47.520;19.144;2023-01-16T00:01:23;5.70;99.90
45619;DHT22;31343;47.520;19.144;2023-01-16T00:03:48;5.80;99.90
45619;DHT22;31343;47.520;19.144;2023-01-16T00:06:14;5.80;99.90
45619;DHT22;31343;47.520;19.144;2023-01-16T00:08:41;5.80;99.90
45619;DHT22;31343;47.520;19.144;2023-01-16T00:11:07;5.80;99.90
45619;DHT22;31343;47.520;19.144;2023-01-16T00:13:33;5.80;99.90
45619;DHT22;31343;47.520;19.144;2023-01-16T00:15:59;5.70;99.90
45619;DHT22;31343;47.520;19.144;2023-01-16T00:18:25;5.80;99.90
45619;DHT22;31343;47.520;19.144;2023-01-16T00:20:50;5.70;99.90
45619;DHT22;31343;47.520;19.144;2023-01-16T00:23:16;5.70;99.90
45619;DHT22;31343;47.520;19.144;2023-01-16T00:25:43;5.80;99.90
45619;DHT22;31343;47.520;19.144;2023-01-16T00:28:11;5.80;99.90
45619;DHT22;31343;47.520;19.144;2023-01-16T00:30:37;5.80;99.90
45619;DHT22;31343;47.520;19.144;2023-01-16T00:33:03;5.80;99.90
45619;DHT22;31343;47.520;19.144;2023-01-16T00:35:29;5.70;99.90
45619;DHT22;31343;47.520;19.144;2023-01-16T00:37:55;5.70;99.90
45619;DHT22;31343;47.520;19.144;2023-01-16T00:40:20;5.80;99.90
45619;DHT22;31343;47.520;19.144;2023-01-16T00:42:46;5.70;99.90
45619;DHT22;31343;47.520;19.144;2023-01-16T00:45:12;5.80;99.90
45619;DHT22;31343;47.520;19.144;2023-01-16T00:47:38;5.80;99.90
45619;DHT22;31343;47.520;19.144;2023-01-16T00:50:04;5.90;99.90
45619;DHT22;31343;47.520;19.144;2023-01-16T00:52:29;5.90;99.90
45619;DHT22;31343;47.520;19.144;2023-01-16T00:54:55;5.90;99.90
45619;DHT22;31343;47.520;19.144;2023-01-16T00:57:21;5.90;99.90
45619;DHT22;31343;47.520;19.144;2023-01-16T00:59:48;5.90;99.90
45619;DHT22;31343;47.520;19.144;2023-01-16T01:02:14;5.90;99.90
45619;DHT22;31343;47.520;19.144;2023-01-16T01:04:40;6.00;99.90
45619;DHT22;31343;47.520;19.144;2023-01-16T01:07:06;5.90;99.90
45619;DHT22;31343;47.520;19.144;2023-01-16T01:09:32;5.90;99.90
45619;DHT22;31343;47.520;19.144;2023-01-16T01:11:58;5.90;99.90
45619;DHT22;31343;47.520;19.144;2023-01-16T01:14:26;5.80;99.90
45619;DHT22;31343;47.520;19.144;2023-01-16T01:16:52;5.80;99.90
45619;DHT22;31343;47.520;19.144;2023-01-16T01:19:18;5.90;99.90
45619;DHT22;31343;47.520;19.144;2023-01-16T01:21:44;5.90;99.90
45619;DHT22;31343;47.520;19.144;2023-01-16T01:24:09;5.90;99.90
45619;DHT22;31343;47.520;19.144;2023-01-16T01:26:35;5.90;99.90
45619;DHT22;31343;47.520;19.144;2023-01-16T01:29:01;5.80;99.90
45619;DHT22;31343;47.520;19.144;2023-01-16T01:31:28;5.80;99.90
45619;DHT22;31343;47.520;19.144;2023-01-16T01:33:54;5.80;99.90
45619;DHT22;31343;47.520;19.144;2023-01-16T01:36:20;5.90;99.90
45619;DHT22;31343;47.520;19.144;2023-01-16T01:38:46;5.80;99.90
45619;DHT22;31343;47.520;19.144;2023-01-16T01:41:13;5.80;99.90
45619;DHT22;31343;47.520;19.144;2023-01-16T01:43:57;5.80;99.90
45619;DHT22;31343;47.520;19.144;2023-01-16T01:49:12;5.70;99.90
45619;DHT22;31343;47.520;19.144;2023-01-16T01:51:41;5.60;99.90
45619;DHT22;31343;47.520;19.144;2023-01-16T01:54:20;5.50;99.90
45619;DHT22;31343;47.520;19.144;2023-01-16T01:56:58;5.60;99.90
45619;DHT22;31343;47.520;19.144;2023-01-16T01:59:28;5.70;99.90
45619;DHT22;31343;47.520;19.144;2023-01-16T02:01:55;5.70;99.90
45619;DHT22;31343;47.520;19.144;2023-01-16T02:04:28;5.70;99.90
45619;DHT22;31343;47.520;19.144;2023-01-16T02:06:57;5.70;99.90
45619;DHT22;31343;47.520;19.144;2023-01-16T02:09:25;5.70;99.90
45619;DHT22;31343;47.520;19.144;2023-01-16T02:14:22;5.70;99.90
45619;DHT22;31343;47.520;19.144;2023-01-16T02:16:56;5.70;99.90
45619;DHT22;31343;47.520;19.144;2023-01-16T02:36:03;5.80;99.90
45619;DHT22;31343;47.520;19.144;2023-01-16T02:55:35;5.90;99.90
45619;DHT22;31343;47.520;19.144;2023-01-16T02:58:04;5.90;99.90
45619;DHT22;31343;47.520;19.144;2023-01-16T03:00:31;5.90;99.90
45619;DHT22;31343;47.520;19.144;2023-01-16T03:02:59;5.90;99.90
45619;DHT22;31343;47.520;19.144;2023-01-16T03:05:26;6.00;99.90
45619;DHT22;31343;47.520;19.144;2023-01-16T03:08:22;6.00;99.90
45619;DHT22;31343;47.520;19.144;2023-01-16T03:11:15;5.90;99.90
45619;DHT22;31343;47.520;19.144;2023-01-16T03:14:01;5.90;99.90
45619;DHT22;31343;47.520;19.144;2023-01-16T03:19:58;5.90;99.90
45619;DHT22;31343;47.520;19.144;2023-01-16T03:23:13;5.90;99.90
45619;DHT22;31343;47.520;19.144;2023-01-16T03:26:02;6.00;99.90
45619;DHT22;31343;47.520;19.144;2023-01-16T03:31:17;5.90;99.90
45619;DHT22;31343;47.520;19.144;2023-01-16T03:33:58;5.80;99.90
45619;DHT22;31343;47.520;19.144;2023-01-16T03:36:45;5.90;99.90
45619;DHT22;31343;47.520;19.144;2023-01-16T03:39:13;5.80;99.90
45619;DHT22;31343;47.520;19.144;2023-01-16T03:41:41;5.60;99.90
45619;DHT22;31343;47.520;19.144;2023-01-16T03:44:16;5.60;99.90
45619;DHT22;31343;47.520;19.144;2023-01-16T03:46:45;5.70;99.90
45619;DHT22;31343;47.520;19.144;2023-01-16T03:49:20;5.70;99.90
45619;DHT22;31343;47.520;19.144;2023-01-16T03:51:53;5.70;99.90
45619;DHT22;31343;47.520;19.144;2023-01-16T03:57:20;5.60;99.90
45619;DHT22;31343;47.520;19.144;2023-01-16T03:59:48;5.60;99.90
45619;DHT22;31343;47.520;19.144;2023-01-16T04:02:17;5.60;99.90
45619;DHT22;31343;47.520;19.144;2023-01-16T04:05:00;5.60;99.90
45619;DHT22;31343;47.520;19.144;2023-01-16T04:07:33;5.60;99.90
45619;DHT22;31343;47.520;19.144;2023-01-16T04:10:12;5.60;99.90
45619;DHT22;31343;47.520;19.144;2023-01-16T04:12:43;5.60;99.90
45619;DHT22;31343;47.520;19.144;2023-01-16T04:15:09;5.70;99.90
45619;DHT22;31343;47.520;19.144;2023-01-16T04:17:38;5.70;99.90
45619;DHT22;31343;47.520;19.144;2023-01-16T04:20:06;5.70;99.90
45619;DHT22;31343;47.520;19.144;2023-01-16T04:22:32;5.70;99.90
45619;DHT22;31343;47.520;19.144;2023-01-16T04:25:00;5.70;99.90
45619;DHT22;31343;47.520;19.144;2023-01-16T04:27:27;5.70;99.90
45619;DHT22;31343;47.520;19.144;2023-01-16T04:29:52;5.70;99.90
45619;DHT22;31343;47.520;19.144;2023-01-16T04:32:18;5.70;99.90
45619;DHT22;31343;47.520;19.144;2023-01-16T04:34:44;5.60;99.90
45619;DHT22;31343;47.520;19.144;2023-01-16T04:37:15;5.70;99.90
45619;DHT22;31343;47.520;19.144;2023-01-16T04:39:42;5.60;99.90
45619;DHT22;31343;47.520;19.144;2023-01-16T04:42:08;5.50;99.90
45619;DHT22;31343;47.520;19.144;2023-01-16T04:44:34;5.50;99.90
45619;DHT22;31343;47.520;19.144;2023-01-16T04:47:00;5.50;99.90
45619;DHT22;31343;47.520;19.144;2023-01-16T04:49:25;5.60;99.90
45619;DHT22;31343;47.520;19.144;2023-01-16T04:51:51;5.60;99.90
45619;DHT22;31343;47.520;19.144;2023-01-16T04:54:18;5.60;99.90
45619;DHT22;31343;47.520;19.144;2023-01-16T04:56:44;5.60;99.90
45619;DHT22;31343;47.520;19.144;2023-01-16T04:59:11;5.60;99.90
45619;DHT22;31343;47.520;19.144;2023-01-16T05:01:38;5.60;99.90
45619;DHT22;31343;47.520;19.144;2023-01-16T05:04:05;5.60;99.90
45619;DHT22;31343;47.520;19.144;2023-01-16T05:06:32;5.60;99.90
45619;DHT22;31343;47.520;19.144;2023-01-16T05:08:59;5.50;99.90
45619;DHT22;31343;47.520;19.144;2023-01-16T05:11:25;5.40;99.90
45619;DHT22;31343;47.520;19.144;2023-01-16T05:13:51;5.40;99.90
45619;DHT22;31343;47.520;19.144;2023-01-16T05:16:16;5.40;99.90
45619;DHT22;31343;47.520;19.144;2023-01-16T05:18:42;5.50;99.90
45619;DHT22;31343;47.520;19.144;2023-01-16T05:21:08;5.60;99.90
45619;DHT22;31343;47.520;19.144;2023-01-16T05:23:34;5.60;99.90
45619;DHT22;31343;47.520;19.144;2023-01-16T05:26:01;5.60;99.90
45619;DHT22;31343;47.520;19.144;2023-01-16T05:28:27;5.70;99.90
45619;DHT22;31343;47.520;19.144;2023-01-16T05:30:53;5.70;99.90
45619;DHT22;31343;47.520;19.144;2023-01-16T05:33:19;5.70;99.90
45619;DHT22;31343;47.520;19.144;2023-01-16T05:35:46;5.50;99.90
45619;DHT22;31343;47.520;19.144;2023-01-16T05:38:13;5.40;99.90
45619;DHT22;31343;47.520;19.144;2023-01-16T05:40:39;5.30;99.90
45619;DHT22;31343;47.520;19.144;2023-01-16T05:43:04;5.20;99.90
45619;DHT22;31343;47.520;19.144;2023-01-16T05:45:30;5.10;99.90
45619;DHT22;31343;47.520;19.144;2023-01-16T05:47:56;5.10;99.90
45619;DHT22;31343;47.520;19.144;2023-01-16T05:50:22;5.20;99.90
45619;DHT22;31343;47.520;19.144;2023-01-16T05:52:48;5.30;99.90
45619;DHT22;31343;47.520;19.144;2023-01-16T05:55:14;5.30;99.90
45619;DHT22;31343;47.520;19.144;2023-01-16T05:57:40;5.30;99.90
45619;DHT22;31343;47.520;19.144;2023-01-16T06:00:06;5.30;99.90
45619;DHT22;31343;47.520;19.144;2023-01-16T06:02:32;5.20;99.90
45619;DHT22;31343;47.520;19.144;2023-01-16T06:04:58;5.20;99.90
45619;DHT22;31343;47.520;19.144;2023-01-16T06:07:25;5.30;99.90
45619;DHT22;31343;47.520;19.144;2023-01-16T06:09:51;5.30;99.90
45619;DHT22;31343;47.520;19.144;2023-01-16T06:12:18;5.30;99.90
45619;DHT22;31343;47.520;19.144;2023-01-16T06:14:44;5.40;99.90
45619;DHT22;31343;47.520;19.144;2023-01-16T06:17:12;5.40;99.90
45619;DHT22;31343;47.520;19.144;2023-01-16T06:19:43;5.40;99.90
45619;DHT22;31343;47.520;19.144;2023-01-16T06:22:09;5.40;99.90
45619;DHT22;31343;47.520;19.144;2023-01-16T06:24:35;5.50;99.90
45619;DHT22;31343;47.520;19.144;2023-01-16T06:27:01;5.50;99.90
45619;DHT22;31343;47.520;19.144;2023-01-16T06:29:27;5.60;99.90
45619;DHT22;31343;47.520;19.144;2023-01-16T06:31:53;5.60;99.90
45619;DHT22;31343;47.520;19.144;2023-01-16T06:34:18;5.60;99.90
45619;DHT22;31343;47.520;19.144;2023-01-16T06:36:44;5.60;99.90
45619;DHT22;31343;47.520;19.144;2023-01-16T06:39:13;5.60;99.90
45619;DHT22;31343;47.520;19.144;2023-01-16T06:41:39;5.60;99.90
45619;DHT22;31343;47.520;19.144;2023-01-16T06:44:05;5.60;99.90
45619;DHT22;31343;47.520;19.144;2023-01-16T06:46:30;5.50;99.90
45619;DHT22;31343;47.520;19.144;2023-01-16T06:48:56;5.60;99.90
45619;DHT22;31343;47.520;19.144;2023-01-16T06:51:22;5.40;99.90
45619;DHT22;31343;47.520;19.144;2023-01-16T06:53:48;5.40;99.90
45619;DHT22;31343;47.520;19.144;2023-01-16T06:56:13;5.40;99.90
45619;DHT22;31343;47.520;19.144;2023-01-16T06:58:39;5.30;99.90
45619;DHT22;31343;47.520;19.144;2023-01-16T07:01:05;5.40;99.90
45619;DHT22;31343;47.520;19.144;2023-01-16T07:03:32;5.40;99.90
45619;DHT22;31343;47.520;19.144;2023-01-16T07:05:57;5.50;99.90
45619;DHT22;31343;47.520;19.144;2023-01-16T07:08:23;5.50;99.90
45619;DHT22;31343;47.520;19.144;2023-01-16T07:10:49;5.50;99.90
45619;DHT22;31343;47.520;19.144;2023-01-16T07:13:14;5.50;99.90
45619;DHT22;31343;47.520;19.144;2023-01-16T07:15:45;5.60;99.90
45619;DHT22;31343;47.520;19.144;2023-01-16T07:18:30;5.50;99.90
45619;DHT22;31343;47.520;19.144;2023-01-16T07:21:15;5.60;99.90
45619;DHT22;31343;47.520;19.144;2023-01-16T07:24:05;5.60;99.90
45619;DHT22;31343;47.520;19.144;2023-01-16T07:26:33;5.50;99.90
45619;DHT22;31343;47.520;19.144;2023-01-16T07:28:59;5.50;99.90
45619;DHT22;31343;47.520;19.144;2023-01-16T07:31:27;5.40;99.90
45619;DHT22;31343;47.520;19.144;2023-01-16T07:33:53;5.30;99.90
45619;DHT22;31343;47.520;19.144;2023-01-16T07:36:19;5.40;99.90
45619;DHT22;31343;47.520;19.144;2023-01-16T07:38:45;5.60;99.90
45619;DHT22;31343;47.520;19.144;2023-01-16T07:41:11;5.50;99.90
45619;DHT22;31343;47.520;19.144;2023-01-16T07:43:36;5.60;99.90
45619;DHT22;31343;47.520;19.144;2023-01-16T07:46:02;5.50;99.90
45619;DHT22;31343;47.520;19.144;2023-01-16T07:48:28;5.40;99.90
45619;DHT22;31343;47.520;19.144;2023-01-16T07:50:56;5.40;99.90
45619;DHT22;31343;47.520;19.144;2023-01-16T07:53:25;5.50;99.90
45619;DHT22;31343;47.520;19.144;2023-01-16T07:55:54;5.60;99.90
45619;DHT22;31343;47.520;19.144;2023-01-16T07:58:21;5.70;99.90
45619;DHT22;31343;47.520;19.144;2023-01-16T08:00:48;5.60;99.90
45619;DHT22;31343;47.520;19.144;2023-01-16T08:03:15;5.80;99.90
45619;DHT22;31343;47.520;19.144;2023-01-16T08:05:41;5.70;99.90
45619;DHT22;31343;47.520;19.144;2023-01-16T08:08:11;5.70;99.90
45619;DHT22;31343;47.520;19.144;2023-01-16T08:10:37;5.80;99.90
45619;DHT22;31343;47.520;19.144;2023-01-16T08:13:03;5.70;99.90
45619;DHT22;31343;47.520;19.144;2023-01-16T08:15:29;5.70;99.90
45619;DHT22;31343;47.520;19.144;2023-01-16T08:17:55;5.70;99.90
45619;DHT22;31343;47.520;19.144;2023-01-16T08:20:21;5.70;99.90
45619;DHT22;31343;47.520;19.144;2023-01-16T08:22:49;5.70;99.90
45619;DHT22;31343;47.520;19.144;2023-01-16T08:25:22;5.80;99.90
45619;DHT22;31343;47.520;19.144;2023-01-16T08:27:48;5.70;99.90
45619;DHT22;31343;47.520;19.144;2023-01-16T08:30:15;5.70;99.90
45619;DHT22;31343;47.520;19.144;2023-01-16T08:32:41;5.70;99.90
45619;DHT22;31343;47.520;19.144;2023-01-16T08:35:08;5.70;99.90
45619;DHT22;31343;47.520;19.144;2023-01-16T08:37:34;5.80;99.90
45619;DHT22;31343;47.520;19.144;2023-01-16T08:40:00;5.80;99.90
45619;DHT22;31343;47.520;19.144;2023-01-16T08:42:25;5.90;99.90
45619;DHT22;31343;47.520;19.144;2023-01-16T08:45:11;5.90;99.90
45619;DHT22;31343;47.520;19.144;2023-01-16T08:47:56;5.90;99.90
45619;DHT22;31343;47.520;19.144;2023-01-16T08:50:40;5.80;99.90
45619;DHT22;31343;47.520;19.144;2023-01-16T08:53:24;5.60;99.90
45619;DHT22;31343;47.520;19.144;2023-01-16T08:55:50;5.40;99.90
45619;DHT22;31343;47.520;19.144;2023-01-16T08:58:16;5.40;99.90
45619;DHT22;31343;47.520;19.144;2023-01-16T09:00:45;5.30;99.90
45619;DHT22;31343;47.520;19.144;2023-01-16T09:03:11;5.30;99.90
45619;DHT22;31343;47.520;19.144;2023-01-16T09:05:37;5.30;99.90
45619;DHT22;31343;47.520;19.144;2023-01-16T09:08:03;5.20;99.90
45619;DHT22;31343;47.520;19.144;2023-01-16T09:10:29;5.30;99.90
45619;DHT22;31343;47.520;19.144;2023-01-16T09:12:56;5.30;99.90
45619;DHT22;31343;47.520;19.144;2023-01-16T09:15:41;5.30;99.90
45619;DHT22;31343;47.520;19.144;2023-01-16T09:18:07;5.30;99.90
45619;DHT22;31343;47.520;19.144;2023-01-16T09:20:33;5.30;99.90
45619;DHT22;31343;47.520;19.144;2023-01-16T09:23:03;5.30;99.90
45619;DHT22;31343;47.520;19.144;2023-01-16T09:25:29;5.30;99.90
45619;DHT22;31343;47.520;19.144;2023-01-16T09:27:56;5.40;99.90
45619;DHT22;31343;47.520;19.144;2023-01-16T09:30:22;5.40;99.90
45619;DHT22;31343;47.520;19.144;2023-01-16T09:32:47;5.50;99.90
45619;DHT22;31343;47.520;19.144;2023-01-16T09:35:14;5.50;99.90
45619;DHT22;31343;47.520;19.144;2023-01-16T09:37:39;5.50;99.90
45619;DHT22;31343;47.520;19.144;2023-01-16T09:40:20;5.50;99.90
45619;DHT22;31343;47.520;19.144;2023-01-16T09:46:13;5.50;99.90
45619;DHT22;31343;47.520;19.144;2023-01-16T09:48:46;5.60;99.90
45619;DHT22;31343;47.520;19.144;2023-01-16T09:51:26;5.50;99.90
45619;DHT22;31343;47.520;19.144;2023-01-16T09:56:42;5.50;99.90
45619;DHT22;31343;47.520;19.144;2023-01-16T09:59:38;5.50;99.90
45619;DHT22;31343;47.520;19.144;2023-01-16T10:02:28;5.40;99.90
45619;DHT22;31343;47.520;19.144;2023-01-16T10:04:56;5.40;99.90
45619;DHT22;31343;47.520;19.144;2023-01-16T10:08:01;5.40;99.90
45619;DHT22;31343;47.520;19.144;2023-01-16T10:10:44;5.30;99.90
45619;DHT22;31343;47.520;19.144;2023-01-16T10:27:00;5.30;99.90
45619;DHT22;31343;47.520;19.144;2023-01-16T10:29:52;5.40;99.90
45619;DHT22;31343;47.520;19.144;2023-01-16T10:32:26;5.40;99.90
45619;DHT22;31343;47.520;19.144;2023-01-16T10:34:59;5.40;99.90
45619;DHT22;31343;47.520;19.144;2023-01-16T10:37:30;5.40;99.90
45619;DHT22;31343;47.520;19.144;2023-01-16T10:39:59;5.40;99.90
45619;DHT22;31343;47.520;19.144;2023-01-16T10:42:29;5.40;99.90
45619;DHT22;31343;47.520;19.144;2023-01-16T10:45:29;5.50;99.90
45619;DHT22;31343;47.520;19.144;2023-01-16T10:48:15;5.50;99.90
45619;DHT22;31343;47.520;19.144;2023-01-16T10:51:00;5.50;99.90
45619;DHT22;31343;47.520;19.144;2023-01-16T10:53:27;5.50;99.90
45619;DHT22;31343;47.520;19.144;2023-01-16T10:55:55;5.40;99.90
45619;DHT22;31343;47.520;19.144;2023-01-16T10:58:27;5.40;99.90
45619;DHT22;31343;47.520;19.144;2023-01-16T11:01:02;5.40;99.90
45619;DHT22;31343;47.520;19.144;2023-01-16T11:03:40;5.40;99.90
45619;DHT22;31343;47.520;19.144;2023-01-16T11:06:25;5.40;99.90
45619;DHT22;31343;47.520;19.144;2023-01-16T11:09:05;5.30;99.90
45619;DHT22;31343;47.520;19.144;2023-01-16T11:11:35;5.30;99.90
45619;DHT22;31343;47.520;19.144;2023-01-16T11:14:36;5.40;99.90
45619;DHT22;31343;47.520;19.144;2023-01-16T11:20:11;5.40;99.90
45619;DHT22;31343;47.520;19.144;2023-01-16T11:22:39;5.40;99.90
45619;DHT22;31343;47.520;19.144;2023-01-16T11:25:06;5.40;99.90
45619;DHT22;31343;47.520;19.144;2023-01-16T11:27:36;5.50;99.90
45619;DHT22;31343;47.520;19.144;2023-01-16T11:30:06;5.50;99.90
45619;DHT22;31343;47.520;19.144;2023-01-16T11:32:35;5.50;99.90
45619;DHT22;31343;47.520;19.144;2023-01-16T11:35:10;5.60;99.90
45619;DHT22;31343;47.520;19.144;2023-01-16T11:37:39;5.50;99.90
45619;DHT22;31343;47.520;19.144;2023-01-16T11:40:12;5.50;99.90
45619;DHT22;31343;47.520;19.144;2023-01-16T11:42:57;5.60;99.90
45619;DHT22;31343;47.520;19.144;2023-01-16T11:45:48;5.50;99.90
45619;DHT22;31343;47.520;19.144;2023-01-16T11:48:43;5.50;99.90
45619;DHT22;31343;47.520;19.144;2023-01-16T11:51:18;5.50;99.90
45619;DHT22;31343;47.520;19.144;2023-01-16T11:53:46;5.50;99.90
45619;DHT22;31343;47.520;19.144;2023-01-16T12:04:29;5.40;99.90
45619;DHT22;31343;47.520;19.144;2023-01-16T12:07:05;5.30;99.90
45619;DHT22;31343;47.520;19.144;2023-01-16T12:12:25;5.20;99.90
45619;DHT22;31343;47.520;19.144;2023-01-16T12:15:25;5.30;99.90
45619;DHT22;31343;47.520;19.144;2023-01-16T12:28:31;5.20;99.90
45619;DHT22;31343;47.520;19.144;2023-01-16T12:37:15;5.20;99.90
45619;DHT22;31343;47.520;19.144;2023-01-16T12:46:00;5.10;99.90
45619;DHT22;31343;47.520;19.144;2023-01-16T12:51:13;5.10;99.90
45619;DHT22;31343;47.520;19.144;2023-01-16T12:53:56;5.20;99.90
45619;DHT22;31343;47.520;19.144;2023-01-16T12:59:36;5.20;99.90
45619;DHT22;31343;47.520;19.144;2023-01-16T13:04:56;5.20;99.90
45619;DHT22;31343;47.520;19.144;2023-01-16T13:07:27;5.20;99.90
45619;DHT22;31343;47.520;19.144;2023-01-16T13:10:01;5.20;99.90
45619;DHT22;31343;47.520;19.144;2023-01-16T13:12:50;5.20;99.90
45619;DHT22;31343;47.520;19.144;2023-01-16T13:15:39;5.20;99.90
45619;DHT22;31343;47.520;19.144;2023-01-16T13:20:42;5.20;99.90
45619;DHT22;31343;47.520;19.144;2023-01-16T13:23:19;5.20;99.90
45619;DHT22;31343;47.520;19.144;2023-01-16T13:26:00;5.10;99.90
45619;DHT22;31343;47.520;19.144;2023-01-16T13:34:52;5.10;99.90
45619;DHT22;31343;47.520;19.144;2023-01-16T13:40:29;5.00;99.90
45619;DHT22;31343;47.520;19.144;2023-01-16T13:43:11;5.00;99.90
45619;DHT22;31343;47.520;19.144;2023-01-16T13:45:59;5.00;99.90
45619;DHT22;31343;47.520;19.144;2023-01-16T13:48:33;5.00;99.90
45619;DHT22;31343;47.520;19.144;2023-01-16T13:51:21;5.00;99.90
45619;DHT22;31343;47.520;19.144;2023-01-16T13:54:00;5.00;99.90
45619;DHT22;31343;47.520;19.144;2023-01-16T13:56:30;5.00;99.90
45619;DHT22;31343;47.520;19.144;2023-01-16T13:59:28;5.00;99.90
45619;DHT22;31343;47.520;19.144;2023-01-16T14:01:56;4.90;99.90
45619;DHT22;31343;47.520;19.144;2023-01-16T14:06:53;5.00;99.90
45619;DHT22;31343;47.520;19.144;2023-01-16T14:10:06;5.00;99.90
45619;DHT22;31343;47.520;19.144;2023-01-16T14:13:02;4.90;99.90
45619;DHT22;31343;47.520;19.144;2023-01-16T14:15:48;4.90;99.90
45619;DHT22;31343;47.520;19.144;2023-01-16T14:18:38;4.90;99.90
45619;DHT22;31343;47.520;19.144;2023-01-16T14:21:10;4.90;99.90
45619;DHT22;31343;47.520;19.144;2023-01-16T14:23:38;5.00;99.90
45619;DHT22;31343;47.520;19.144;2023-01-16T14:26:44;5.00;99.90
45619;DHT22;31343;47.520;19.144;2023-01-16T14:32:05;4.90;99.90
45619;DHT22;31343;47.520;19.144;2023-01-16T14:34:59;4.90;99.90
45619;DHT22;31343;47.520;19.144;2023-01-16T14:37:42;4.90;99.90
45619;DHT22;31343;47.520;19.144;2023-01-16T14:45:26;4.90;99.90
45619;DHT22;31343;47.520;19.144;2023-01-16T14:57:33;4.90;99.90
45619;DHT22;31343;47.520;19.144;2023-01-16T15:00:09;4.90;99.90
45619;DHT22;31343;47.520;19.144;2023-01-16T15:03:45;5.00;99.90
45619;DHT22;31343;47.520;19.144;2023-01-16T15:05:56;4.90;99.90
45619;DHT22;31343;47.520;19.144;2023-01-16T15:08:35;5.00;99.90
45619;DHT22;31343;47.520;19.144;2023-01-16T15:11:12;5.00;99.90
45619;DHT22;31343;47.520;19.144;2023-01-16T15:14:17;4.90;99.90
45619;DHT22;31343;47.520;19.144;2023-01-16T15:17:21;5.00;99.90
45619;DHT22;31343;47.520;19.144;2023-01-16T15:20:29;5.00;99.90
45619;DHT22;31343;47.520;19.144;2023-01-16T15:23:26;4.90;99.90
45619;DHT22;31343;47.520;19.144;2023-01-16T15:36:46;5.00;99.90
45619;DHT22;31343;47.520;19.144;2023-01-16T15:42:07;5.00;99.90
45619;DHT22;31343;47.520;19.144;2023-01-16T15:44:57;4.90;99.90
45619;DHT22;31343;47.520;19.144;2023-01-16T15:51:01;5.00;99.90
45619;DHT22;31343;47.520;19.144;2023-01-16T15:53:35;5.00;99.90
45619;DHT22;31343;47.520;19.144;2023-01-16T15:56:17;5.00;99.90
45619;DHT22;31343;47.520;19.144;2023-01-16T15:58:44;5.00;99.90
45619;DHT22;31343;47.520;19.144;2023-01-16T16:01:14;5.00;99.90
45619;DHT22;31343;47.520;19.144;2023-01-16T16:03:46;4.90;99.90
45619;DHT22;31343;47.520;19.144;2023-01-16T16:06:15;4.90;99.90
45619;DHT22;31343;47.520;19.144;2023-01-16T16:08:47;4.90;99.90
45619;DHT22;31343;47.520;19.144;2023-01-16T16:11:24;4.90;99.90
45619;DHT22;31343;47.520;19.144;2023-01-16T16:14:23;4.90;99.90
45619;DHT22;31343;47.520;19.144;2023-01-16T16:20:28;5.00;99.90
45619;DHT22;31343;47.520;19.144;2023-01-16T16:23:15;5.00;99.90
45619;DHT22;31343;47.520;19.144;2023-01-16T16:25:58;5.00;99.90
45619;DHT22;31343;47.520;19.144;2023-01-16T16:33:40;4.90;99.90
45619;DHT22;31343;47.520;19.144;2023-01-16T16:36:07;5.00;99.90
45619;DHT22;31343;47.520;19.144;2023-01-16T16:38:42;5.00;99.90
45619;DHT22;31343;47.520;19.144;2023-01-16T16:44:25;5.00;99.90
45619;DHT22;31343;47.520;19.144;2023-01-16T16:46:58;5.00;99.90
45619;DHT22;31343;47.520;19.144;2023-01-16T16:51:49;5.00;99.90
45619;DHT22;31343;47.520;19.144;2023-01-16T16:54:17;5.00;99.90
45619;DHT22;31343;47.520;19.144;2023-01-16T16:56:47;5.00;99.90
45619;DHT22;31343;47.520;19.144;2023-01-16T16:59:20;5.00;99.90
45619;DHT22;31343;47.520;19.144;2023-01-16T17:01:48;5.00;99.90
45619;DHT22;31343;47.520;19.144;2023-01-16T17:04:15;5.00;99.90
45619;DHT22;31343;47.520;19.144;2023-01-16T17:06:44;5.10;99.90
45619;DHT22;31343;47.520;19.144;2023-01-16T17:09:15;5.10;99.90
45619;DHT22;31343;47.520;19.144;2023-01-16T17:11:45;5.10;99.90
45619;DHT22;31343;47.520;19.144;2023-01-16T17:14:11;5.10;99.90
45619;DHT22;31343;47.520;19.144;2023-01-16T17:16:38;5.10;99.90
45619;DHT22;31343;47.520;19.144;2023-01-16T17:19:23;5.20;99.90
45619;DHT22;31343;47.520;19.144;2023-01-16T17:21:51;5.20;99.90
45619;DHT22;31343;47.520;19.144;2023-01-16T17:24:19;5.20;99.90
45619;DHT22;31343;47.520;19.144;2023-01-16T17:26:45;5.30;99.90
45619;DHT22;31343;47.520;19.144;2023-01-16T17:29:11;5.30;99.90
45619;DHT22;31343;47.520;19.144;2023-01-16T17:31:39;5.30;99.90
45619;DHT22;31343;47.520;19.144;2023-01-16T17:34:08;5.30;99.90
45619;DHT22;31343;47.520;19.144;2023-01-16T17:36:38;5.30;99.90
45619;DHT22;31343;47.520;19.144;2023-01-16T17:39:03;5.30;99.90
45619;DHT22;31343;47.520;19.144;2023-01-16T17:41:34;5.30;99.90
45619;DHT22;31343;47.520;19.144;2023-01-16T17:44:25;5.30;99.90
45619;DHT22;31343;47.520;19.144;2023-01-16T17:47:10;5.20;99.90
45619;DHT22;31343;47.520;19.144;2023-01-16T17:49:36;5.20;99.90
45619;DHT22;31343;47.520;19.144;2023-01-16T17:52:23;5.30;99.90
45619;DHT22;31343;47.520;19.144;2023-01-16T17:54:49;5.20;99.90
45619;DHT22;31343;47.520;19.144;2023-01-16T17:57:33;5.20;99.90
45619;DHT22;31343;47.520;19.144;2023-01-16T17:59:59;5.20;99.90
45619;DHT22;31343;47.520;19.144;2023-01-16T18:05:09;5.20;99.90
45619;DHT22;31343;47.520;19.144;2023-01-16T18:07:35;5.20;99.90
45619;DHT22;31343;47.520;19.144;2023-01-16T18:10:00;5.30;99.90
45619;DHT22;31343;47.520;19.144;2023-01-16T18:12:26;5.20;99.90
45619;DHT22;31343;47.520;19.144;2023-01-16T18:15:10;5.20;99.90
45619;DHT22;31343;47.520;19.144;2023-01-16T18:17:54;5.20;99.90
45619;DHT22;31343;47.520;19.144;2023-01-16T18:20:20;5.20;99.90
45619;DHT22;31343;47.520;19.144;2023-01-16T18:22:46;5.20;99.90
45619;DHT22;31343;47.520;19.144;2023-01-16T18:25:11;5.20;99.90
45619;DHT22;31343;47.520;19.144;2023-01-16T18:27:37;5.20;99.90
45619;DHT22;31343;47.520;19.144;2023-01-16T18:30:03;5.20;99.90
45619;DHT22;31343;47.520;19.144;2023-01-16T18:32:29;5.10;99.90
45619;DHT22;31343;47.520;19.144;2023-01-16T18:35:00;5.10;99.90
45619;DHT22;31343;47.520;19.144;2023-01-16T18:37:54;5.10;99.90
45619;DHT22;31343;47.520;19.144;2023-01-16T18:40:39;5.20;99.90
45619;DHT22;31343;47.520;19.144;2023-01-16T18:43:24;5.20;99.90
45619;DHT22;31343;47.520;19.144;2023-01-16T18:46:16;5.20;99.90
45619;DHT22;31343;47.520;19.144;2023-01-16T18:49:00;5.10;99.90
45619;DHT22;31343;47.520;19.144;2023-01-16T18:51:45;5.10;99.90
45619;DHT22;31343;47.520;19.144;2023-01-16T18:54:31;5.20;99.90
45619;DHT22;31343;47.520;19.144;2023-01-16T18:57:24;5.20;99.90
45619;DHT22;31343;47.520;19.144;2023-01-16T19:00:14;5.20;99.90
45619;DHT22;31343;47.520;19.144;2023-01-16T19:02:59;5.20;99.90